Startpagina
METAR-TAF:

METAR-TAF

Vliegvelden :

Vliegbasis Leeuwarden

Leeuwarden, Nederland

breedte: 53-13N, lengte: 005-46E, hoogte: 1 m

Actueel weer

Dit bericht is 31 minuten geleden gemaakt, om 19:25 UTC
Wind 8 kt uit het oostnoordoosten, variërend tussen het noorden en het oosten
Temperatuur 12°C
Vochtigheid 82%
Druk 1019 hPa
Zicht 10 km of meer

METAR: EHLW 191925Z AUTO 06008KT 360V100 9999 NCD 12/09 Q1019 BLU

Tijdstip: 21:56 (19:56 UTC)

Verwachting

Dit bericht is 3 uur en het 5 minuten geleden gemaakt, om 16:51 UTC
Verwachting geldig van 19 om 17 UTC tot 20 om 05 UTC
Wind 12 kt uit het oostnoordoosten
Zicht 10 km of meer
geen wolken onder 1500 m en geen cumulonimbus

TAF: EHLW 191651Z 1917/2005 06012KT CAVOK

Waarnemingen en weersverwachtingen van meer dan 4000 vliegvelden (METAR en TAF).

De beschikbare stations zijn de gele en rode punten op de kaart.

Ga met uw muis naar het station om de naam te zien.

Klik dan om waarnemingen en weersverwachtingen te zien.

kaart wijzigen: klik op de groene knoppen met een zwart kruis om in te zoomen, op de groene knop met een streepje om uit te zoomen of op de groene pijlen voor aangrenzende kaarten.


METAR-TAF: